Terminal Aerodrome Forecast
Issued by NWS

Home | Current Version | Previous Version | Text Only | Print | Product List | Glossary On
Versions: 1 2 3 4 5 6 7 8 9 10 11 12 13 14 15
000
FTAK31 PAJN 270540
TAFAJN
TAF
PAJN 270540Z 2706/2806 07005KT 3SM -DZ BR FEW003 BKN015 OVC035
      TEMPO 2706/2709 2SM -DZ BR
     FM270900 VRB04KT 3SM -DZ BR FEW005 BKN015 OVC035
     FM271600 07003KT 4SM -DZ BR FEW005 BKN015 OVC040
     FM271900 08005KT 6SM BR VCSH SCT015 OVC050
     FM272200 24006KT P6SM OVC050=

USA.gov is the U.S. government's official web portal to all federal, state and local government web resources and services.